Time;durP1;ratioP1;P1;durP2;ratioP2;P2;SDS_P1;SDS_P2;PMS_P1;PMS_P2;Temp;Humidity;BMP_temperature;BMP_pressure;BME280_temperature;BME280_humidity;BME280_pressure;Samples;Min_cycle;Max_cycle;Signal;HPM_P1;HPM_P2
2023/04/11 00:04:13;;;;;;;9.2;5.1;;;;;;;4.6;89.4;98850;;;;
2023/04/11 00:15:14;;;;;;;10.3;5.2;;;;;;;4.5;89.5;98830;;;;
2023/04/11 00:26:13;;;;;;;10.3;5.2;;;;;;;4.7;91.5;98810;;;;
2023/04/11 00:36:13;;;;;;;10.3;5.2;;;;;;;4.8;91.7;98800;;;;
2023/04/11 00:47:13;;;;;;;10.1;5.6;;;;;;;4.6;91.4;98800;;;;
2023/04/11 00:57:13;;;;;;;10.1;5.6;;;;;;;4.4;90.9;98780;;;;
2023/04/11 01:07:13;;;;;;;10.1;5.6;;;;;;;4.4;90.8;98770;;;;
2023/04/11 01:18:14;;;;;;;7.6;4.6;;;;;;;4.3;90.8;98760;;;;
2023/04/11 01:29:13;;;;;;;7.6;4.6;;;;;;;4.1;90.5;98750;;;;
2023/04/11 01:39:14;;;;;;;7.5;3.7;;;;;;;4;90.4;98740;;;;
2023/04/11 01:50:13;;;;;;;7.5;3.7;;;;;;;3.8;90.3;98740;;;;
2023/04/11 02:00:14;;;;;;;7.5;3.7;;;;;;;3.6;89.8;98720;;;;
2023/04/11 02:11:13;;;;;;;11.2;6.2;;;;;;;3.3;89.3;98710;;;;
2023/04/11 02:21:13;;;;;;;11.2;6.2;;;;;;;3.1;88.9;98720;;;;
2023/04/11 02:31:13;;;;;;;11.2;6.2;;;;;;;2.7;88.1;98700;;;;
2023/04/11 02:42:13;;;;;;;11.7;6.5;;;;;;;2.4;88.2;98680;;;;
2023/04/11 02:52:13;;;;;;;11.7;6.5;;;;;;;2.2;88.4;98680;;;;
2023/04/11 03:02:14;;;;;;;11.7;6.5;;;;;;;2.2;88.5;98670;;;;
2023/04/11 03:13:13;;;;;;;11.3;6;;;;;;;2;88.4;98670;;;;
2023/04/11 03:23:13;;;;;;;11.3;6;;;;;;;1.8;88.3;98660;;;;
2023/04/11 03:33:13;;;;;;;11.3;6;;;;;;;1.7;88.5;98650;;;;
2023/04/11 03:44:13;;;;;;;10.7;5.6;;;;;;;1.6;88.7;98640;;;;
2023/04/11 03:55:13;;;;;;;10.7;5.6;;;;;;;1.6;88.7;98630;;;;
2023/04/11 04:05:13;;;;;;;10.7;5.6;;;;;;;1.6;88.9;98620;;;;
2023/04/11 04:15:14;;;;;;;6;3.3;;;;;;;1.7;89.3;98630;;;;
2023/04/11 04:26:15;;;;;;;6;3.3;;;;;;;1.8;89.6;98620;;;;
2023/04/11 04:37:20;;;;;;;6;3.3;;;;;;;1.8;89.8;98620;;;;
2023/04/11 04:47:13;;;;;;;13;7.2;;;;;;;2;89.9;98600;;;;
2023/04/11 04:57:13;;;;;;;13;7.2;;;;;;;2.2;90.4;98590;;;;
2023/04/11 05:07:13;;;;;;;13;7.2;;;;;;;2.6;90.9;98570;;;;
2023/04/11 05:18:13;;;;;;;11.7;6.8;;;;;;;3.2;91.3;98560;;;;
2023/04/11 05:28:14;;;;;;;11.7;6.8;;;;;;;3.8;91.6;98550;;;;
2023/04/11 05:38:14;;;;;;;11.7;6.8;;;;;;;4.3;91.7;98530;;;;
2023/04/11 05:49:13;;;;;;;14.2;7.8;;;;;;;4.8;91.5;98520;;;;
2023/04/11 06:00:15;;;;;;;14.2;7.8;;;;;;;5.4;91.3;98510;;;;
2023/04/11 06:11:13;;;;;;;12.9;8;;;;;;;6.1;91.4;98500;;;;
2023/04/11 06:21:13;;;;;;;12.9;8;;;;;;;7;91.6;98480;;;;
2023/04/11 06:31:14;;;;;;;12.9;8;;;;;;;7.6;89;98470;;;;
2023/04/11 06:42:13;;;;;;;9.5;5.8;;;;;;;8.4;87.4;98460;;;;
2023/04/11 06:53:13;;;;;;;9.5;5.8;;;;;;;9.2;86.7;98450;;;;
2023/04/11 07:03:13;;;;;;;9.5;5.8;;;;;;;10;85.1;98450;;;;
2023/04/11 07:14:13;;;;;;;8.7;5.4;;;;;;;10.6;80.6;98440;;;;
2023/04/11 07:24:13;;;;;;;8.7;5.4;;;;;;;11;79.9;98430;;;;
2023/04/11 07:35:14;;;;;;;8.7;5.4;;;;;;;11.6;77.8;98420;;;;
2023/04/11 07:45:14;;;;;;;6.2;4.1;;;;;;;12.1;76.1;98400;;;;
2023/04/11 07:56:13;;;;;;;6.2;4.1;;;;;;;12.7;74.4;98400;;;;
2023/04/11 08:06:13;;;;;;;6.2;4.1;;;;;;;13.4;72.4;98380;;;;
2023/04/11 08:17:13;;;;;;;7.4;4.5;;;;;;;13.7;72.3;98380;;;;
2023/04/11 08:27:14;;;;;;;7.4;4.5;;;;;;;14.4;71.6;98360;;;;
2023/04/11 08:38:14;;;;;;;7.7;5;;;;;;;14.7;67.3;98330;;;;
2023/04/11 08:48:14;;;;;;;7.7;5;;;;;;;14.7;66.7;98300;;;;
2023/04/11 08:59:13;;;;;;;7.7;5;;;;;;;15.2;67.5;98280;;;;
2023/04/11 09:10:14;;;;;;;9.3;5.1;;;;;;;15.6;66.2;98270;;;;
2023/04/11 09:21:13;;;;;;;9.3;5.1;;;;;;;15.6;63.5;98240;;;;
2023/04/11 09:31:14;;;;;;;9.3;5.1;;;;;;;15.8;63.5;98230;;;;
2023/04/11 09:42:15;;;;;;;7.3;4.5;;;;;;;15.7;61.3;98210;;;;
2023/04/11 09:52:13;;;;;;;7.3;4.5;;;;;;;16.2;60.9;98190;;;;
2023/04/11 10:02:14;;;;;;;7.3;4.5;;;;;;;16.3;60.1;98170;;;;
2023/04/11 10:13:14;;;;;;;6.2;3.8;;;;;;;16.8;56.6;98150;;;;
2023/04/11 10:24:14;;;;;;;6.2;3.8;;;;;;;17.2;53.1;98120;;;;
2023/04/11 10:35:14;;;;;;;6.2;3.8;;;;;;;17.5;54.2;98110;;;;
2023/04/11 10:45:14;;;;;;;5.4;3.5;;;;;;;17.8;54.4;98100;;;;
2023/04/11 10:55:15;;;;;;;5.4;3.5;;;;;;;17.9;52.8;98100;;;;
2023/04/11 11:06:14;;;;;;;5.4;3.5;;;;;;;18.3;51.5;98090;;;;
2023/04/11 11:16:14;;;;;;;6.4;3.9;;;;;;;18.7;48.9;98080;;;;
2023/04/11 11:26:14;;;;;;;6.4;3.9;;;;;;;18.5;47.2;98070;;;;
2023/04/11 11:37:14;;;;;;;6.4;3.9;;;;;;;18;48.8;98060;;;;
2023/04/11 11:48:14;;;;;;;5.3;3.2;;;;;;;18.7;48.4;98040;;;;
2023/04/11 11:59:14;;;;;;;5.3;3.2;;;;;;;18.8;45.4;98030;;;;
2023/04/11 12:09:14;;;;;;;7.3;3.8;;;;;;;18.8;48.6;98020;;;;
2023/04/11 12:20:14;;;;;;;7.3;3.8;;;;;;;18.7;49.4;98020;;;;
2023/04/11 12:30:14;;;;;;;7.3;3.8;;;;;;;18.9;46.9;98010;;;;
2023/04/11 12:41:14;;;;;;;5.8;3.4;;;;;;;19.1;47.9;98000;;;;
2023/04/11 12:51:14;;;;;;;5.8;3.4;;;;;;;19.2;46.9;97980;;;;
2023/04/11 13:02:14;;;;;;;5.8;3.4;;;;;;;18.9;46.7;97960;;;;
2023/04/11 13:12:14;;;;;;;6;3.5;;;;;;;18.3;48.2;97950;;;;
2023/04/11 13:22:14;;;;;;;6;3.5;;;;;;;18.2;49.4;97940;;;;
2023/04/11 13:33:14;;;;;;;6;3.5;;;;;;;18.5;50.3;97930;;;;
2023/04/11 13:43:14;;;;;;;7.8;5.7;;;;;;;18.7;48.4;97910;;;;
2023/04/11 13:53:14;;;;;;;7.8;5.7;;;;;;;18.1;49.4;97900;;;;
2023/04/11 14:03:14;;;;;;;7.8;5.7;;;;;;;18.7;48.5;97890;;;;
2023/04/11 14:14:14;;;;;;;6.8;4.3;;;;;;;18.7;46.6;97880;;;;
2023/04/11 14:24:14;;;;;;;6.8;4.3;;;;;;;19.2;45.7;97860;;;;
2023/04/11 14:34:14;;;;;;;6.8;4.3;;;;;;;19.7;45;97860;;;;
2023/04/11 14:45:14;;;;;;;6.9;4.1;;;;;;;19.7;44.5;97850;;;;
2023/04/11 14:56:14;;;;;;;6.9;4.1;;;;;;;19;46.3;97840;;;;
2023/04/11 15:07:14;;;;;;;6.9;4.1;;;;;;;18;46.9;97840;;;;
2023/04/11 15:18:14;;;;;;;7;4.2;;;;;;;17.3;49;97840;;;;
2023/04/11 15:28:14;;;;;;;7;4.2;;;;;;;16.7;50.5;97840;;;;
2023/04/11 15:39:14;;;;;;;15.3;6.3;;;;;;;15.3;61.2;97870;;;;
2023/04/11 15:49:14;;;;;;;15.3;6.3;;;;;;;13.6;64.6;97890;;;;
2023/04/11 16:00:14;;;;;;;15.3;6.3;;;;;;;13;67.4;97890;;;;
2023/04/11 16:11:14;;;;;;;14.6;11.6;;;;;;;12.7;68.5;97890;;;;
2023/04/11 16:22:14;;;;;;;14.6;11.6;;;;;;;12.5;69.2;97880;;;;
2023/04/11 16:33:14;;;;;;;14.6;11.6;;;;;;;12.1;69.4;97910;;;;
2023/04/11 16:44:16;;;;;;;14;9;;;;;;;11.7;72.1;97920;;;;
2023/04/11 16:54:14;;;;;;;14;9;;;;;;;11.5;73.3;97930;;;;
2023/04/11 17:05:14;;;;;;;14;9;;;;;;;11.1;74.5;97940;;;;
2023/04/11 17:15:14;;;;;;;13.4;9.1;;;;;;;10.8;75.7;97950;;;;
2023/04/11 17:26:14;;;;;;;13.4;9.1;;;;;;;10.7;76.1;97960;;;;
2023/04/11 17:37:14;;;;;;;13.4;9.1;;;;;;;10.5;74.4;97960;;;;
2023/04/11 17:47:15;;;;;;;10.9;5.6;;;;;;;10.2;75.5;97980;;;;
2023/04/11 17:58:15;;;;;;;10.9;5.6;;;;;;;10;76.4;98010;;;;
2023/04/11 18:08:14;;;;;;;9.2;4;;;;;;;9.8;77.2;98010;;;;
2023/04/11 18:18:14;;;;;;;9.2;4;;;;;;;9.7;78.3;98020;;;;
2023/04/11 18:29:14;;;;;;;9.2;4;;;;;;;9.4;78.2;98040;;;;
2023/04/11 18:39:14;;;;;;;8.4;4.2;;;;;;;9.2;79.6;98060;;;;
2023/04/11 18:49:14;;;;;;;8.4;4.2;;;;;;;8.9;80.9;98070;;;;
2023/04/11 18:59:14;;;;;;;8.4;4.2;;;;;;;8.7;82.4;98070;;;;
2023/04/11 19:10:14;;;;;;;7.8;4.6;;;;;;;8.5;84;98090;;;;
2023/04/11 19:20:15;;;;;;;7.8;4.6;;;;;;;8.5;84.9;98090;;;;
2023/04/11 19:30:14;;;;;;;7.8;4.6;;;;;;;8.3;85.8;98100;;;;
2023/04/11 19:41:14;;;;;;;12.1;4.5;;;;;;;8.2;85.1;98100;;;;
2023/04/11 19:52:14;;;;;;;12.1;4.5;;;;;;;8.1;85.4;98100;;;;
2023/04/11 20:02:14;;;;;;;12.1;4.5;;;;;;;8;85.6;98110;;;;
2023/04/11 20:13:14;;;;;;;9.1;5.6;;;;;;;7.9;85.9;98110;;;;
2023/04/11 20:24:16;;;;;;;9.1;5.6;;;;;;;7.8;86.1;98110;;;;
2023/04/11 20:35:14;;;;;;;9.1;5.6;;;;;;;7.7;86.1;98110;;;;
2023/04/11 20:45:15;;;;;;;10.3;5.8;;;;;;;7.7;86;98110;;;;
2023/04/11 20:56:14;;;;;;;10.3;5.8;;;;;;;7.7;86.4;98110;;;;
2023/04/11 21:06:14;;;;;;;10.3;5.8;;;;;;;7.8;86.6;98120;;;;
2023/04/11 21:17:14;;;;;;;9.7;5.2;;;;;;;7.8;86.9;98110;;;;
2023/04/11 21:28:14;;;;;;;9.7;5.2;;;;;;;7.8;87.3;98110;;;;
2023/04/11 21:38:14;;;;;;;10.6;6;;;;;;;7.8;87.6;98120;;;;
2023/04/11 21:49:14;;;;;;;10.6;6;;;;;;;7.9;87.6;98110;;;;
2023/04/11 22:00:14;;;;;;;10.6;6;;;;;;;7.9;87.8;98110;;;;
2023/04/11 22:11:14;;;;;;;11.8;7.2;;;;;;;7.8;87.9;98110;;;;
2023/04/11 22:21:18;;;;;;;11.8;7.2;;;;;;;7.8;88;98110;;;;
2023/04/11 22:31:14;;;;;;;11.8;7.2;;;;;;;7.7;88.2;98120;;;;
2023/04/11 22:41:14;;;;;;;14.3;9.8;;;;;;;7.7;88.2;98120;;;;
2023/04/11 22:52:17;;;;;;;14.3;9.8;;;;;;;7.7;88.3;98130;;;;
2023/04/11 23:02:14;;;;;;;14.3;9.8;;;;;;;7.6;88.1;98120;;;;
2023/04/11 23:12:15;;;;;;;17.5;11.7;;;;;;;7.5;87.9;98130;;;;
2023/04/11 23:23:14;;;;;;;17.5;11.7;;;;;;;7.5;88.1;98120;;;;
2023/04/11 23:33:14;;;;;;;17.5;11.7;;;;;;;7.5;88.3;98120;;;;
2023/04/11 23:44:14;;;;;;;20.6;11.7;;;;;;;7.4;87.9;98100;;;;
2023/04/11 23:55:15;;;;;;;20.6;11.7;;;;;;;7.3;87.5;98100;;;;
